Pagrindinis puslapis
METAR-TAF:

METAR-TAF

Oro uostai :

Limonas, Kosta Rika

platuma: 10-00N, ilguma: 083-03W, Aukštis: 5 m

Dabartinis oras

Ataskaita buvo paskelbta 58 minutes, ne 23:00 UTC
Vėjas 2 kt iš Rytų/Pietryčių
Temperatūra 28°C
Drėgmė 79%
Slėgis 1010 hPa
Matomumas 10 km arba daugiau
Mažai debesys ne aukštis 2000 ft
Išsisklaidę debesys ne aukštis 13000 ft
Su prošvaistėmis ne aukštis 22000 ft

METAR: MRLM 222300Z 12002KT 9999 FEW020 SCT130 BKN220 28/24 A2983

Laikas: 17:58 (23:58 UTC)

Prognozė

Ataskaita buvo paskelbta 58 minutes, ne 23:00 UTC
Prognozė galioja nuo 23 metu 00 UTC su 23 metu 24 UTC
Vėjas 4 kt iš Vakarų/Pietvakarių
Matomumas 10 km arba daugiau
Mažai debesys ne aukštis 2000 ft
Išsisklaidę debesys ne aukštis 20000 ft
Tapsmas
nuo 23 metu 07 UTC su 23 metu 12 UTC
dulksna
Tapsmas
nuo 23 metu 15 UTC su 23 metu 17 UTC
Vėjas 5 kt iš Rytų

TAF: MRLM 222300Z 2300/2324 25004KT 9999 FEW020 SCT200 TX31/2320Z TN22/2311Z BECMG 2307/2312 DZ BECMG 2315/2317 08005KT

Orai ataskaitas ir orų prognozės (METAR, TAF).

turimą stotys yra geltonos ir raudonos taškus žemėlapyje.

Perkelti pele per norėdami pamatyti stoties vardą.

Tada spustelėkite, norėdami matyti oro stebėjimo ir prognozės.

Norėdami pakeisti žemėlapį: spustelėkite ant žalios mygtukų su juodo kryžiaus žemyn,; žalią mygtuką su brūkšneliu, jei norite nutolinti; arba žalių rodyklių gretimoms žemėlapius.


METAR-TAF: